createdAt,value
2023-03-11T00:05:45.275Z,1003.89
2023-03-11T00:15:45.711Z,1003.87
2023-03-11T00:25:45.574Z,1004.22
2023-03-11T00:35:46.059Z,1004.38
2023-03-11T00:45:46.445Z,1004.27
2023-03-11T00:55:46.225Z,1004.17
2023-03-11T01:05:46.279Z,1003.96
2023-03-11T01:15:46.618Z,1004.06
2023-03-11T01:25:46.698Z,1003.97
2023-03-11T01:35:47.119Z,1004.02
2023-03-11T01:45:47.174Z,1004.12
2023-03-11T01:55:48.567Z,1004.13
2023-03-11T02:05:47.616Z,1003.82
2023-03-11T02:15:48.139Z,1003.65
2023-03-11T02:25:48.021Z,1003.72
2023-03-11T02:35:49.345Z,1004.07
2023-03-11T02:45:48.434Z,1003.73
2023-03-11T02:55:50.096Z,1003.81
2023-03-11T03:05:48.951Z,1003.91
2023-03-11T03:15:49.340Z,1004.11
2023-03-11T03:25:49.373Z,1004.28
2023-03-11T03:35:49.669Z,1004.21
2023-03-11T03:45:49.737Z,1004.36
2023-03-11T03:55:50.014Z,1004.06
2023-03-11T04:05:50.388Z,1003.97
2023-03-11T04:15:50.415Z,1004.11
2023-03-11T04:25:50.853Z,1004.02
2023-03-11T04:35:50.906Z,1004.12
2023-03-11T04:45:51.248Z,1004.09
2023-03-11T04:55:51.286Z,1004.18
2023-03-11T05:05:51.677Z,1004.14
2023-03-11T05:15:51.765Z,1004.21
2023-03-11T05:25:51.841Z,1004.35
2023-03-11T05:35:52.011Z,1004.68
2023-03-11T05:45:52.313Z,1004.80
2023-03-11T05:55:52.344Z,1004.66
2023-03-11T06:05:52.799Z,1004.63
2023-03-11T06:15:52.892Z,1004.52
2023-03-11T06:25:53.061Z,1004.58
2023-03-11T06:35:53.463Z,1004.84
2023-03-11T06:45:53.433Z,1004.90
2023-03-11T06:55:53.479Z,1004.86
2023-03-11T07:05:53.840Z,1005.13
2023-03-11T07:15:53.869Z,1005.31
2023-03-11T07:25:54.166Z,1005.45
2023-03-11T07:35:54.257Z,1005.64
2023-03-11T07:45:54.341Z,1005.64
2023-03-11T07:55:54.410Z,1005.72
2023-03-11T08:05:54.704Z,1005.68
2023-03-11T08:15:54.749Z,1005.65
2023-03-11T08:25:54.862Z,1005.57
2023-03-11T08:35:55.122Z,1005.78
2023-03-11T08:45:55.351Z,1006.07
2023-03-11T08:55:55.445Z,1006.15
2023-03-11T09:05:55.744Z,1006.22
2023-03-11T09:15:55.806Z,1006.33
2023-03-11T09:25:55.887Z,1006.42
2023-03-11T09:35:56.130Z,1006.50
2023-03-11T09:45:57.375Z,1006.63
2023-03-11T09:55:56.612Z,1006.70
2023-03-11T10:05:56.924Z,1006.69
2023-03-11T10:15:56.957Z,1006.86
2023-03-11T10:25:58.213Z,1006.99
2023-03-11T10:35:57.671Z,1007.02
2023-03-11T10:45:57.844Z,1006.97
2023-03-11T10:55:57.947Z,1006.94
2023-03-11T11:05:59.059Z,1006.91
2023-03-11T11:15:58.113Z,1006.72
2023-03-11T11:25:58.412Z,1006.80
2023-03-11T11:35:58.514Z,1006.68
2023-03-11T11:45:58.640Z,1006.72
2023-03-11T11:55:58.705Z,1006.67
2023-03-11T12:05:59.022Z,1006.40
2023-03-11T12:15:59.326Z,1006.37
2023-03-11T12:25:59.318Z,1006.31
2023-03-11T12:35:59.401Z,1006.34
2023-03-11T12:45:59.494Z,1006.13
2023-03-11T12:56:01.748Z,1005.98
2023-03-11T13:05:59.853Z,1006.05
2023-03-11T13:16:00.880Z,1006.07
2023-03-11T13:26:00.305Z,1006.09
2023-03-11T13:36:00.537Z,1006.15
2023-03-11T13:46:01.441Z,1006.07
2023-03-11T13:56:01.912Z,1006.19
2023-03-11T14:06:00.976Z,1006.24
2023-03-11T14:16:01.261Z,1006.29
2023-03-11T14:26:01.712Z,1006.33
2023-03-11T14:36:01.822Z,1006.41
2023-03-11T14:46:01.986Z,1006.42
2023-03-11T14:56:02.831Z,1006.53
2023-03-11T15:06:02.128Z,1006.52
2023-03-11T15:16:02.478Z,1006.60
2023-03-11T15:26:02.551Z,1006.61
2023-03-11T15:36:02.932Z,1006.79
2023-03-11T15:46:03.286Z,1006.85
2023-03-11T15:56:07.961Z,1006.86
2023-03-11T16:06:03.438Z,1006.70
2023-03-11T16:16:04.910Z,1006.69
2023-03-11T16:26:03.533Z,1006.74
2023-03-11T16:36:03.983Z,1006.83
2023-03-11T16:46:04.142Z,1007.08
2023-03-11T16:56:04.106Z,1007.26
2023-03-11T17:06:04.227Z,1007.51
2023-03-11T17:16:04.699Z,1007.64
2023-03-11T17:26:04.715Z,1007.86
2023-03-11T17:36:08.277Z,1008.08
2023-03-11T17:46:04.801Z,1008.29
2023-03-11T17:56:05.255Z,1008.36
2023-03-11T18:06:05.349Z,1008.47
2023-03-11T18:16:06.045Z,1008.55
2023-03-11T18:26:05.609Z,1008.71
2023-03-11T18:36:05.836Z,1008.91
2023-03-11T18:46:06.044Z,1008.97
2023-03-11T18:56:06.274Z,1009.05
2023-03-11T19:06:06.466Z,1009.09
2023-03-11T19:16:06.811Z,1009.13
2023-03-11T19:26:06.630Z,1009.18
2023-03-11T19:36:06.888Z,1009.27
2023-03-11T19:46:07.089Z,1009.39
2023-03-11T19:56:07.050Z,1009.46
2023-03-11T20:06:07.422Z,1009.51
2023-03-11T20:16:07.707Z,1009.57
2023-03-11T20:26:07.752Z,1009.63
2023-03-11T20:36:08.100Z,1009.67
2023-03-11T20:46:08.290Z,1009.80
2023-03-11T20:56:15.492Z,1010.03
2023-03-11T21:06:08.597Z,1010.05
2023-03-11T21:16:08.758Z,1010.10
2023-03-11T21:26:08.689Z,1010.13
2023-03-11T21:36:09.154Z,1010.18
2023-03-11T21:46:09.072Z,1010.25
2023-03-11T21:56:09.274Z,1010.35
2023-03-11T22:06:09.331Z,1010.33
2023-03-11T22:16:10.779Z,1010.37
2023-03-11T22:26:09.828Z,1010.41
2023-03-11T22:36:10.238Z,1010.49
2023-03-11T22:46:10.343Z,1010.48
2023-03-11T22:56:10.672Z,1010.57
2023-03-11T23:06:10.717Z,1010.66
2023-03-11T23:16:11.053Z,1010.67
2023-03-11T23:26:11.111Z,1010.78
2023-03-11T23:36:11.472Z,1010.78
2023-03-11T23:46:11.597Z,1010.68
2023-03-11T23:56:11.789Z,1010.78
